sensor_id;sensor_type;location;lat;lon;timestamp;P1;durP1;ratioP1;P2;durP2;ratioP2
20445;SDS011;10382;49.140;9.234;2023-04-30T00:01:33;9.67;;;6.20;;
20445;SDS011;10382;49.140;9.234;2023-04-30T00:04:01;14.50;;;8.30;;
20445;SDS011;10382;49.140;9.234;2023-04-30T00:06:27;20.10;;;8.60;;
20445;SDS011;10382;49.140;9.234;2023-04-30T00:08:55;14.37;;;8.10;;
20445;SDS011;10382;49.140;9.234;2023-04-30T00:11:23;9.60;;;6.17;;
20445;SDS011;10382;49.140;9.234;2023-04-30T00:13:50;13.77;;;7.33;;
20445;SDS011;10382;49.140;9.234;2023-04-30T00:16:17;13.87;;;7.57;;
20445;SDS011;10382;49.140;9.234;2023-04-30T00:18:44;19.20;;;10.67;;
20445;SDS011;10382;49.140;9.234;2023-04-30T00:21:10;12.30;;;7.40;;
20445;SDS011;10382;49.140;9.234;2023-04-30T00:23:37;16.00;;;7.70;;
20445;SDS011;10382;49.140;9.234;2023-04-30T00:26:04;19.47;;;9.93;;
20445;SDS011;10382;49.140;9.234;2023-04-30T00:28:32;14.57;;;8.30;;
20445;SDS011;10382;49.140;9.234;2023-04-30T00:30:59;24.23;;;11.57;;
20445;SDS011;10382;49.140;9.234;2023-04-30T00:33:26;16.73;;;8.93;;
20445;SDS011;10382;49.140;9.234;2023-04-30T00:35:53;11.20;;;7.63;;
20445;SDS011;10382;49.140;9.234;2023-04-30T00:38:20;12.77;;;7.57;;
20445;SDS011;10382;49.140;9.234;2023-04-30T00:40:47;17.00;;;8.10;;
20445;SDS011;10382;49.140;9.234;2023-04-30T00:43:14;11.77;;;7.20;;
20445;SDS011;10382;49.140;9.234;2023-04-30T00:45:42;16.27;;;8.70;;
20445;SDS011;10382;49.140;9.234;2023-04-30T00:48:09;20.37;;;9.27;;
20445;SDS011;10382;49.140;9.234;2023-04-30T00:50:36;17.20;;;7.87;;
20445;SDS011;10382;49.140;9.234;2023-04-30T00:53:03;18.80;;;9.30;;
20445;SDS011;10382;49.140;9.234;2023-04-30T00:55:30;13.37;;;7.77;;
20445;SDS011;10382;49.140;9.234;2023-04-30T00:57:57;13.17;;;8.10;;
20445;SDS011;10382;49.140;9.234;2023-04-30T01:00:25;20.53;;;9.20;;
20445;SDS011;10382;49.140;9.234;2023-04-30T01:02:54;13.50;;;7.80;;
20445;SDS011;10382;49.140;9.234;2023-04-30T01:05:21;14.17;;;8.83;;
20445;SDS011;10382;49.140;9.234;2023-04-30T01:07:48;39.77;;;18.23;;
20445;SDS011;10382;49.140;9.234;2023-04-30T01:10:15;12.67;;;7.17;;
20445;SDS011;10382;49.140;9.234;2023-04-30T01:12:43;16.30;;;9.50;;
20445;SDS011;10382;49.140;9.234;2023-04-30T01:15:18;19.70;;;10.20;;
20445;SDS011;10382;49.140;9.234;2023-04-30T01:17:53;19.13;;;10.47;;
20445;SDS011;10382;49.140;9.234;2023-04-30T01:20:25;21.63;;;11.00;;
20445;SDS011;10382;49.140;9.234;2023-04-30T01:22:56;14.97;;;9.40;;
20445;SDS011;10382;49.140;9.234;2023-04-30T01:25:35;20.43;;;10.47;;
20445;SDS011;10382;49.140;9.234;2023-04-30T01:28:17;17.77;;;9.87;;
20445;SDS011;10382;49.140;9.234;2023-04-30T01:30:45;16.50;;;9.63;;
20445;SDS011;10382;49.140;9.234;2023-04-30T01:33:13;28.23;;;14.43;;
20445;SDS011;10382;49.140;9.234;2023-04-30T01:38:30;16.97;;;9.70;;
20445;SDS011;10382;49.140;9.234;2023-04-30T01:41:08;16.80;;;9.20;;
20445;SDS011;10382;49.140;9.234;2023-04-30T01:43:48;21.80;;;11.63;;
20445;SDS011;10382;49.140;9.234;2023-04-30T01:46:23;16.27;;;8.57;;
20445;SDS011;10382;49.140;9.234;2023-04-30T01:48:52;15.10;;;9.20;;
20445;SDS011;10382;49.140;9.234;2023-04-30T01:51:29;24.33;;;8.93;;
20445;SDS011;10382;49.140;9.234;2023-04-30T01:54:02;21.00;;;11.30;;
20445;SDS011;10382;49.140;9.234;2023-04-30T01:56:35;19.17;;;10.07;;
20445;SDS011;10382;49.140;9.234;2023-04-30T01:59:10;14.10;;;9.63;;
20445;SDS011;10382;49.140;9.234;2023-04-30T02:01:39;17.43;;;10.27;;
20445;SDS011;10382;49.140;9.234;2023-04-30T02:04:06;14.83;;;8.57;;
20445;SDS011;10382;49.140;9.234;2023-04-30T02:06:33;16.47;;;10.30;;
20445;SDS011;10382;49.140;9.234;2023-04-30T02:09:00;17.20;;;9.33;;
20445;SDS011;10382;49.140;9.234;2023-04-30T02:11:29;12.70;;;7.73;;
20445;SDS011;10382;49.140;9.234;2023-04-30T02:13:56;18.50;;;10.07;;
20445;SDS011;10382;49.140;9.234;2023-04-30T02:16:24;17.80;;;9.93;;
20445;SDS011;10382;49.140;9.234;2023-04-30T02:18:51;23.80;;;12.50;;
20445;SDS011;10382;49.140;9.234;2023-04-30T02:21:18;16.33;;;9.83;;
20445;SDS011;10382;49.140;9.234;2023-04-30T02:23:45;16.40;;;9.80;;
20445;SDS011;10382;49.140;9.234;2023-04-30T02:26:12;20.00;;;10.57;;
20445;SDS011;10382;49.140;9.234;2023-04-30T02:28:38;19.23;;;10.70;;
20445;SDS011;10382;49.140;9.234;2023-04-30T02:31:06;24.27;;;9.83;;
20445;SDS011;10382;49.140;9.234;2023-04-30T02:33:34;24.17;;;13.00;;
20445;SDS011;10382;49.140;9.234;2023-04-30T02:36:01;18.80;;;10.77;;
20445;SDS011;10382;49.140;9.234;2023-04-30T02:38:28;24.33;;;13.40;;
20445;SDS011;10382;49.140;9.234;2023-04-30T02:40:55;19.60;;;11.73;;
20445;SDS011;10382;49.140;9.234;2023-04-30T02:43:22;24.40;;;13.23;;
20445;SDS011;10382;49.140;9.234;2023-04-30T02:45:49;17.53;;;10.40;;
20445;SDS011;10382;49.140;9.234;2023-04-30T02:48:16;16.63;;;10.30;;
20445;SDS011;10382;49.140;9.234;2023-04-30T02:50:44;21.33;;;12.50;;
20445;SDS011;10382;49.140;9.234;2023-04-30T02:53:11;27.50;;;12.80;;
20445;SDS011;10382;49.140;9.234;2023-04-30T02:55:37;23.43;;;11.43;;
20445;SDS011;10382;49.140;9.234;2023-04-30T02:58:04;21.70;;;11.40;;
20445;SDS011;10382;49.140;9.234;2023-04-30T03:00:31;18.70;;;11.40;;
20445;SDS011;10382;49.140;9.234;2023-04-30T03:02:58;20.60;;;11.80;;
20445;SDS011;10382;49.140;9.234;2023-04-30T03:05:25;29.77;;;13.77;;
20445;SDS011;10382;49.140;9.234;2023-04-30T03:07:53;17.83;;;10.60;;
20445;SDS011;10382;49.140;9.234;2023-04-30T03:10:20;20.73;;;12.57;;
20445;SDS011;10382;49.140;9.234;2023-04-30T03:12:47;24.67;;;12.50;;
20445;SDS011;10382;49.140;9.234;2023-04-30T03:15:14;28.93;;;12.90;;
20445;SDS011;10382;49.140;9.234;2023-04-30T03:17:41;26.43;;;13.90;;
20445;SDS011;10382;49.140;9.234;2023-04-30T03:20:08;20.07;;;10.23;;
20445;SDS011;10382;49.140;9.234;2023-04-30T03:22:35;23.50;;;13.70;;
20445;SDS011;10382;49.140;9.234;2023-04-30T03:25:04;22.37;;;11.53;;
20445;SDS011;10382;49.140;9.234;2023-04-30T03:27:31;24.13;;;12.60;;
20445;SDS011;10382;49.140;9.234;2023-04-30T03:29:58;17.80;;;10.63;;
20445;SDS011;10382;49.140;9.234;2023-04-30T03:32:25;21.63;;;12.20;;
20445;SDS011;10382;49.140;9.234;2023-04-30T03:34:52;27.10;;;14.20;;
20445;SDS011;10382;49.140;9.234;2023-04-30T03:37:19;17.77;;;10.27;;
20445;SDS011;10382;49.140;9.234;2023-04-30T03:39:45;24.10;;;12.73;;
20445;SDS011;10382;49.140;9.234;2023-04-30T03:42:14;22.50;;;12.33;;
20445;SDS011;10382;49.140;9.234;2023-04-30T03:44:40;30.50;;;12.93;;
20445;SDS011;10382;49.140;9.234;2023-04-30T03:47:07;21.20;;;12.20;;
20445;SDS011;10382;49.140;9.234;2023-04-30T03:49:34;21.83;;;12.17;;
20445;SDS011;10382;49.140;9.234;2023-04-30T03:52:01;17.57;;;10.57;;
20445;SDS011;10382;49.140;9.234;2023-04-30T03:54:29;18.93;;;12.00;;
20445;SDS011;10382;49.140;9.234;2023-04-30T03:56:57;20.77;;;11.73;;
20445;SDS011;10382;49.140;9.234;2023-04-30T03:59:26;22.33;;;12.03;;
20445;SDS011;10382;49.140;9.234;2023-04-30T04:01:53;25.10;;;14.13;;
20445;SDS011;10382;49.140;9.234;2023-04-30T04:04:19;24.53;;;14.30;;
20445;SDS011;10382;49.140;9.234;2023-04-30T04:06:46;24.90;;;12.30;;
20445;SDS011;10382;49.140;9.234;2023-04-30T04:09:13;36.73;;;12.33;;
20445;SDS011;10382;49.140;9.234;2023-04-30T04:11:40;18.13;;;11.80;;
20445;SDS011;10382;49.140;9.234;2023-04-30T04:14:07;20.90;;;12.10;;
20445;SDS011;10382;49.140;9.234;2023-04-30T04:16:35;21.03;;;11.50;;
20445;SDS011;10382;49.140;9.234;2023-04-30T04:19:02;27.93;;;14.37;;
20445;SDS011;10382;49.140;9.234;2023-04-30T04:21:30;19.77;;;11.70;;
20445;SDS011;10382;49.140;9.234;2023-04-30T04:23:57;23.80;;;12.27;;
20445;SDS011;10382;49.140;9.234;2023-04-30T04:26:26;18.07;;;10.37;;
20445;SDS011;10382;49.140;9.234;2023-04-30T04:28:53;24.77;;;12.70;;
20445;SDS011;10382;49.140;9.234;2023-04-30T04:31:20;20.20;;;11.13;;
20445;SDS011;10382;49.140;9.234;2023-04-30T04:33:50;19.00;;;11.50;;
20445;SDS011;10382;49.140;9.234;2023-04-30T04:36:22;19.90;;;11.37;;
20445;SDS011;10382;49.140;9.234;2023-04-30T04:38:49;20.07;;;11.00;;
20445;SDS011;10382;49.140;9.234;2023-04-30T04:41:15;13.77;;;10.00;;
20445;SDS011;10382;49.140;9.234;2023-04-30T04:43:42;20.40;;;11.20;;
20445;SDS011;10382;49.140;9.234;2023-04-30T04:46:10;24.73;;;12.67;;
20445;SDS011;10382;49.140;9.234;2023-04-30T04:48:36;24.70;;;11.97;;
20445;SDS011;10382;49.140;9.234;2023-04-30T04:51:05;39.40;;;12.47;;
20445;SDS011;10382;49.140;9.234;2023-04-30T04:53:32;23.70;;;12.30;;
20445;SDS011;10382;49.140;9.234;2023-04-30T04:55:58;25.53;;;11.67;;
20445;SDS011;10382;49.140;9.234;2023-04-30T04:58:25;24.20;;;12.20;;
20445;SDS011;10382;49.140;9.234;2023-04-30T05:00:52;20.90;;;11.73;;
20445;SDS011;10382;49.140;9.234;2023-04-30T05:03:19;28.70;;;12.33;;
20445;SDS011;10382;49.140;9.234;2023-04-30T05:05:46;33.20;;;16.23;;
20445;SDS011;10382;49.140;9.234;2023-04-30T05:08:14;40.30;;;16.53;;
20445;SDS011;10382;49.140;9.234;2023-04-30T05:10:41;25.33;;;14.03;;
20445;SDS011;10382;49.140;9.234;2023-04-30T05:13:08;39.57;;;18.60;;
20445;SDS011;10382;49.140;9.234;2023-04-30T05:15:35;25.97;;;12.80;;
20445;SDS011;10382;49.140;9.234;2023-04-30T05:18:02;37.17;;;13.30;;
20445;SDS011;10382;49.140;9.234;2023-04-30T05:20:29;21.60;;;12.17;;
20445;SDS011;10382;49.140;9.234;2023-04-30T05:22:56;30.40;;;14.50;;
20445;SDS011;10382;49.140;9.234;2023-04-30T05:25:24;28.33;;;13.20;;
20445;SDS011;10382;49.140;9.234;2023-04-30T05:27:51;26.53;;;13.47;;
20445;SDS011;10382;49.140;9.234;2023-04-30T05:30:18;26.87;;;13.73;;
20445;SDS011;10382;49.140;9.234;2023-04-30T05:32:45;28.20;;;12.33;;
20445;SDS011;10382;49.140;9.234;2023-04-30T05:35:14;42.67;;;18.70;;
20445;SDS011;10382;49.140;9.234;2023-04-30T05:37:41;24.10;;;14.23;;
20445;SDS011;10382;49.140;9.234;2023-04-30T05:40:09;26.13;;;13.53;;
20445;SDS011;10382;49.140;9.234;2023-04-30T05:42:37;20.53;;;12.33;;
20445;SDS011;10382;49.140;9.234;2023-04-30T05:45:05;26.70;;;13.50;;
20445;SDS011;10382;49.140;9.234;2023-04-30T05:47:32;19.20;;;11.27;;
20445;SDS011;10382;49.140;9.234;2023-04-30T05:49:59;31.00;;;15.27;;
20445;SDS011;10382;49.140;9.234;2023-04-30T05:52:26;26.10;;;13.40;;
20445;SDS011;10382;49.140;9.234;2023-04-30T05:54:53;26.80;;;14.73;;
20445;SDS011;10382;49.140;9.234;2023-04-30T05:57:20;22.77;;;12.30;;
20445;SDS011;10382;49.140;9.234;2023-04-30T05:59:48;27.50;;;14.43;;
20445;SDS011;10382;49.140;9.234;2023-04-30T06:02:15;33.57;;;16.27;;
20445;SDS011;10382;49.140;9.234;2023-04-30T06:04:42;33.63;;;16.80;;
20445;SDS011;10382;49.140;9.234;2023-04-30T06:07:09;31.70;;;15.20;;
20445;SDS011;10382;49.140;9.234;2023-04-30T06:09:36;31.53;;;16.40;;
20445;SDS011;10382;49.140;9.234;2023-04-30T06:12:03;20.03;;;11.17;;
20445;SDS011;10382;49.140;9.234;2023-04-30T06:14:30;29.03;;;14.30;;
20445;SDS011;10382;49.140;9.234;2023-04-30T06:16:58;25.57;;;13.60;;
20445;SDS011;10382;49.140;9.234;2023-04-30T06:19:26;25.10;;;13.10;;
20445;SDS011;10382;49.140;9.234;2023-04-30T06:21:52;23.90;;;13.50;;
20445;SDS011;10382;49.140;9.234;2023-04-30T06:24:19;27.07;;;14.40;;
20445;SDS011;10382;49.140;9.234;2023-04-30T06:26:46;34.47;;;17.07;;
20445;SDS011;10382;49.140;9.234;2023-04-30T06:29:13;30.93;;;14.80;;
20445;SDS011;10382;49.140;9.234;2023-04-30T06:31:40;29.00;;;13.83;;
20445;SDS011;10382;49.140;9.234;2023-04-30T06:34:08;29.03;;;15.40;;
20445;SDS011;10382;49.140;9.234;2023-04-30T06:36:35;28.97;;;15.80;;
20445;SDS011;10382;49.140;9.234;2023-04-30T06:39:02;19.63;;;12.33;;
20445;SDS011;10382;49.140;9.234;2023-04-30T06:41:29;35.50;;;16.53;;
20445;SDS011;10382;49.140;9.234;2023-04-30T06:43:56;28.47;;;14.93;;
20445;SDS011;10382;49.140;9.234;2023-04-30T06:46:22;27.50;;;13.70;;
20445;SDS011;10382;49.140;9.234;2023-04-30T06:48:50;23.90;;;13.10;;
20445;SDS011;10382;49.140;9.234;2023-04-30T06:51:18;24.37;;;14.27;;
20445;SDS011;10382;49.140;9.234;2023-04-30T06:53:45;26.50;;;12.87;;
20445;SDS011;10382;49.140;9.234;2023-04-30T06:56:11;26.33;;;12.67;;
20445;SDS011;10382;49.140;9.234;2023-04-30T06:58:38;22.70;;;12.57;;
20445;SDS011;10382;49.140;9.234;2023-04-30T07:01:05;22.13;;;12.30;;
20445;SDS011;10382;49.140;9.234;2023-04-30T07:03:32;18.20;;;11.97;;
20445;SDS011;10382;49.140;9.234;2023-04-30T07:06:00;16.83;;;10.80;;
20445;SDS011;10382;49.140;9.234;2023-04-30T07:08:29;16.93;;;9.97;;
20445;SDS011;10382;49.140;9.234;2023-04-30T07:10:55;19.60;;;11.63;;
20445;SDS011;10382;49.140;9.234;2023-04-30T07:13:22;22.33;;;11.73;;
20445;SDS011;10382;49.140;9.234;2023-04-30T07:15:49;21.00;;;12.30;;
20445;SDS011;10382;49.140;9.234;2023-04-30T07:18:19;17.70;;;10.67;;
20445;SDS011;10382;49.140;9.234;2023-04-30T07:20:46;22.77;;;13.23;;
20445;SDS011;10382;49.140;9.234;2023-04-30T07:23:13;21.53;;;12.00;;
20445;SDS011;10382;49.140;9.234;2023-04-30T07:25:41;31.20;;;16.10;;
20445;SDS011;10382;49.140;9.234;2023-04-30T07:28:08;29.60;;;14.67;;
20445;SDS011;10382;49.140;9.234;2023-04-30T07:30:35;27.73;;;12.53;;
20445;SDS011;10382;49.140;9.234;2023-04-30T07:33:01;25.80;;;12.23;;
20445;SDS011;10382;49.140;9.234;2023-04-30T07:35:28;24.63;;;11.43;;
20445;SDS011;10382;49.140;9.234;2023-04-30T07:37:55;24.03;;;12.70;;
20445;SDS011;10382;49.140;9.234;2023-04-30T07:40:22;22.57;;;13.10;;
20445;SDS011;10382;49.140;9.234;2023-04-30T07:42:50;29.10;;;14.10;;
20445;SDS011;10382;49.140;9.234;2023-04-30T07:45:17;23.43;;;13.40;;
20445;SDS011;10382;49.140;9.234;2023-04-30T07:47:44;20.83;;;12.10;;
20445;SDS011;10382;49.140;9.234;2023-04-30T07:50:11;20.20;;;11.60;;
20445;SDS011;10382;49.140;9.234;2023-04-30T07:52:38;23.97;;;13.07;;
20445;SDS011;10382;49.140;9.234;2023-04-30T07:55:05;19.83;;;11.90;;
20445;SDS011;10382;49.140;9.234;2023-04-30T07:57:33;21.20;;;11.80;;
20445;SDS011;10382;49.140;9.234;2023-04-30T08:00:02;27.57;;;14.10;;
20445;SDS011;10382;49.140;9.234;2023-04-30T08:02:29;19.63;;;11.93;;
20445;SDS011;10382;49.140;9.234;2023-04-30T08:04:56;19.40;;;11.40;;
20445;SDS011;10382;49.140;9.234;2023-04-30T08:07:22;21.37;;;12.00;;
20445;SDS011;10382;49.140;9.234;2023-04-30T08:09:49;22.90;;;11.00;;
20445;SDS011;10382;49.140;9.234;2023-04-30T08:12:16;26.33;;;12.90;;
20445;SDS011;10382;49.140;9.234;2023-04-30T08:14:43;24.23;;;12.33;;
20445;SDS011;10382;49.140;9.234;2023-04-30T08:17:11;25.20;;;11.23;;
20445;SDS011;10382;49.140;9.234;2023-04-30T08:19:38;22.23;;;11.80;;
20445;SDS011;10382;49.140;9.234;2023-04-30T08:22:05;26.50;;;11.27;;
20445;SDS011;10382;49.140;9.234;2023-04-30T08:24:32;28.70;;;12.13;;
20445;SDS011;10382;49.140;9.234;2023-04-30T08:26:59;19.77;;;10.87;;
20445;SDS011;10382;49.140;9.234;2023-04-30T08:29:27;17.37;;;10.87;;
20445;SDS011;10382;49.140;9.234;2023-04-30T08:31:54;20.33;;;9.73;;
20445;SDS011;10382;49.140;9.234;2023-04-30T08:34:25;22.27;;;10.07;;
20445;SDS011;10382;49.140;9.234;2023-04-30T08:36:51;18.50;;;9.70;;
20445;SDS011;10382;49.140;9.234;2023-04-30T08:39:18;19.57;;;10.27;;
20445;SDS011;10382;49.140;9.234;2023-04-30T08:41:45;17.33;;;8.53;;
20445;SDS011;10382;49.140;9.234;2023-04-30T08:44:16;18.73;;;9.57;;
20445;SDS011;10382;49.140;9.234;2023-04-30T08:46:45;16.87;;;8.70;;
20445;SDS011;10382;49.140;9.234;2023-04-30T08:49:14;21.40;;;8.30;;
20445;SDS011;10382;49.140;9.234;2023-04-30T08:51:42;24.00;;;8.40;;
20445;SDS011;10382;49.140;9.234;2023-04-30T08:54:10;16.13;;;7.30;;
20445;SDS011;10382;49.140;9.234;2023-04-30T08:56:38;17.83;;;8.43;;
20445;SDS011;10382;49.140;9.234;2023-04-30T08:59:06;14.83;;;7.60;;
20445;SDS011;10382;49.140;9.234;2023-04-30T09:01:33;15.47;;;8.17;;
20445;SDS011;10382;49.140;9.234;2023-04-30T09:04:01;15.80;;;7.10;;
20445;SDS011;10382;49.140;9.234;2023-04-30T09:06:28;17.43;;;7.07;;
20445;SDS011;10382;49.140;9.234;2023-04-30T09:08:57;17.30;;;6.40;;
20445;SDS011;10382;49.140;9.234;2023-04-30T09:11:34;12.30;;;6.50;;
20445;SDS011;10382;49.140;9.234;2023-04-30T09:14:01;14.13;;;7.13;;
20445;SDS011;10382;49.140;9.234;2023-04-30T09:16:29;14.10;;;5.73;;
20445;SDS011;10382;49.140;9.234;2023-04-30T09:19:09;15.00;;;6.77;;
20445;SDS011;10382;49.140;9.234;2023-04-30T09:21:49;21.97;;;8.87;;
20445;SDS011;10382;49.140;9.234;2023-04-30T09:24:18;23.23;;;9.60;;
20445;SDS011;10382;49.140;9.234;2023-04-30T09:26:45;14.93;;;6.30;;
20445;SDS011;10382;49.140;9.234;2023-04-30T09:29:12;16.87;;;7.03;;
20445;SDS011;10382;49.140;9.234;2023-04-30T09:31:41;14.30;;;6.80;;
20445;SDS011;10382;49.140;9.234;2023-04-30T09:34:09;14.20;;;5.93;;
20445;SDS011;10382;49.140;9.234;2023-04-30T09:36:36;19.87;;;7.10;;
20445;SDS011;10382;49.140;9.234;2023-04-30T09:39:18;17.40;;;5.30;;
20445;SDS011;10382;49.140;9.234;2023-04-30T09:41:45;13.10;;;5.97;;
20445;SDS011;10382;49.140;9.234;2023-04-30T09:44:25;14.60;;;6.17;;
20445;SDS011;10382;49.140;9.234;2023-04-30T09:46:53;16.43;;;6.13;;
20445;SDS011;10382;49.140;9.234;2023-04-30T09:49:22;16.63;;;5.97;;
20445;SDS011;10382;49.140;9.234;2023-04-30T09:51:52;16.50;;;6.90;;
20445;SDS011;10382;49.140;9.234;2023-04-30T09:54:22;13.40;;;5.23;;
20445;SDS011;10382;49.140;9.234;2023-04-30T09:56:52;7.90;;;4.40;;
20445;SDS011;10382;49.140;9.234;2023-04-30T09:59:20;15.83;;;5.97;;
20445;SDS011;10382;49.140;9.234;2023-04-30T10:01:48;17.70;;;7.70;;
20445;SDS011;10382;49.140;9.234;2023-04-30T10:04:20;12.40;;;5.67;;
20445;SDS011;10382;49.140;9.234;2023-04-30T10:06:49;13.60;;;6.07;;
20445;SDS011;10382;49.140;9.234;2023-04-30T10:09:17;22.73;;;10.40;;
20445;SDS011;10382;49.140;9.234;2023-04-30T10:11:46;16.47;;;6.50;;
20445;SDS011;10382;49.140;9.234;2023-04-30T10:14:13;15.43;;;6.90;;
20445;SDS011;10382;49.140;9.234;2023-04-30T10:16:46;13.40;;;6.30;;
20445;SDS011;10382;49.140;9.234;2023-04-30T10:19:19;23.33;;;9.03;;
20445;SDS011;10382;49.140;9.234;2023-04-30T10:21:48;13.47;;;6.73;;
20445;SDS011;10382;49.140;9.234;2023-04-30T10:24:16;15.13;;;5.50;;
20445;SDS011;10382;49.140;9.234;2023-04-30T10:26:45;14.30;;;6.43;;
20445;SDS011;10382;49.140;9.234;2023-04-30T10:29:14;10.73;;;5.03;;
20445;SDS011;10382;49.140;9.234;2023-04-30T10:31:43;16.90;;;7.33;;
20445;SDS011;10382;49.140;9.234;2023-04-30T10:34:14;11.37;;;5.30;;
20445;SDS011;10382;49.140;9.234;2023-04-30T10:36:47;20.43;;;7.33;;
20445;SDS011;10382;49.140;9.234;2023-04-30T10:39:17;13.50;;;6.53;;
20445;SDS011;10382;49.140;9.234;2023-04-30T10:41:47;16.40;;;6.90;;
20445;SDS011;10382;49.140;9.234;2023-04-30T10:44:14;16.20;;;6.93;;
20445;SDS011;10382;49.140;9.234;2023-04-30T10:46:48;14.13;;;6.10;;
20445;SDS011;10382;49.140;9.234;2023-04-30T10:49:15;9.87;;;5.53;;
20445;SDS011;10382;49.140;9.234;2023-04-30T10:51:50;18.23;;;7.90;;
20445;SDS011;10382;49.140;9.234;2023-04-30T10:54:21;15.23;;;5.90;;
20445;SDS011;10382;49.140;9.234;2023-04-30T10:56:53;19.23;;;8.30;;
20445;SDS011;10382;49.140;9.234;2023-04-30T10:59:22;20.97;;;9.90;;
20445;SDS011;10382;49.140;9.234;2023-04-30T11:01:56;15.20;;;7.33;;
20445;SDS011;10382;49.140;9.234;2023-04-30T11:04:24;21.87;;;8.70;;
20445;SDS011;10382;49.140;9.234;2023-04-30T11:06:54;15.20;;;7.33;;
20445;SDS011;10382;49.140;9.234;2023-04-30T11:09:40;12.53;;;5.53;;
20445;SDS011;10382;49.140;9.234;2023-04-30T11:12:13;14.07;;;6.27;;
20445;SDS011;10382;49.140;9.234;2023-04-30T11:14:41;14.20;;;6.87;;
20445;SDS011;10382;49.140;9.234;2023-04-30T11:17:10;11.00;;;6.40;;
20445;SDS011;10382;49.140;9.234;2023-04-30T11:19:41;13.93;;;6.27;;
20445;SDS011;10382;49.140;9.234;2023-04-30T11:22:20;14.43;;;6.70;;
20445;SDS011;10382;49.140;9.234;2023-04-30T11:24:48;14.53;;;7.27;;
20445;SDS011;10382;49.140;9.234;2023-04-30T11:27:21;13.10;;;5.70;;
20445;SDS011;10382;49.140;9.234;2023-04-30T11:29:49;11.70;;;5.90;;
20445;SDS011;10382;49.140;9.234;2023-04-30T11:32:17;15.00;;;7.43;;
20445;SDS011;10382;49.140;9.234;2023-04-30T11:34:44;12.03;;;5.63;;
20445;SDS011;10382;49.140;9.234;2023-04-30T11:37:12;12.00;;;5.80;;
20445;SDS011;10382;49.140;9.234;2023-04-30T11:39:39;13.93;;;6.33;;
20445;SDS011;10382;49.140;9.234;2023-04-30T11:42:08;14.40;;;7.17;;
20445;SDS011;10382;49.140;9.234;2023-04-30T11:44:36;12.13;;;6.17;;
20445;SDS011;10382;49.140;9.234;2023-04-30T11:47:03;14.43;;;6.33;;
20445;SDS011;10382;49.140;9.234;2023-04-30T11:49:31;14.13;;;6.30;;
20445;SDS011;10382;49.140;9.234;2023-04-30T11:51:58;11.30;;;5.87;;
20445;SDS011;10382;49.140;9.234;2023-04-30T11:54:25;15.67;;;6.60;;
20445;SDS011;10382;49.140;9.234;2023-04-30T11:56:52;13.33;;;5.97;;
20445;SDS011;10382;49.140;9.234;2023-04-30T11:59:24;11.13;;;5.63;;
20445;SDS011;10382;49.140;9.234;2023-04-30T12:01:53;13.93;;;7.40;;
20445;SDS011;10382;49.140;9.234;2023-04-30T12:04:20;15.70;;;7.07;;
20445;SDS011;10382;49.140;9.234;2023-04-30T12:06:47;14.60;;;6.70;;
20445;SDS011;10382;49.140;9.234;2023-04-30T12:09:14;11.57;;;5.60;;
20445;SDS011;10382;49.140;9.234;2023-04-30T12:11:40;15.47;;;7.20;;
20445;SDS011;10382;49.140;9.234;2023-04-30T12:14:08;15.70;;;7.37;;
20445;SDS011;10382;49.140;9.234;2023-04-30T12:16:39;18.73;;;8.57;;
20445;SDS011;10382;49.140;9.234;2023-04-30T12:19:11;13.30;;;6.70;;
20445;SDS011;10382;49.140;9.234;2023-04-30T12:21:38;18.40;;;7.10;;
20445;SDS011;10382;49.140;9.234;2023-04-30T12:24:07;17.37;;;5.53;;
20445;SDS011;10382;49.140;9.234;2023-04-30T12:26:36;12.90;;;6.53;;
20445;SDS011;10382;49.140;9.234;2023-04-30T12:29:04;11.67;;;5.67;;
20445;SDS011;10382;49.140;9.234;2023-04-30T12:31:33;10.57;;;5.17;;
20445;SDS011;10382;49.140;9.234;2023-04-30T12:34:05;14.60;;;7.40;;
20445;SDS011;10382;49.140;9.234;2023-04-30T12:36:33;17.00;;;7.27;;
20445;SDS011;10382;49.140;9.234;2023-04-30T12:39:02;12.53;;;6.27;;
20445;SDS011;10382;49.140;9.234;2023-04-30T12:41:38;14.50;;;6.50;;
20445;SDS011;10382;49.140;9.234;2023-04-30T12:44:13;10.70;;;4.87;;
20445;SDS011;10382;49.140;9.234;2023-04-30T12:46:43;15.57;;;6.93;;
20445;SDS011;10382;49.140;9.234;2023-04-30T12:49:11;14.87;;;6.83;;
20445;SDS011;10382;49.140;9.234;2023-04-30T12:51:39;10.77;;;6.03;;
20445;SDS011;10382;49.140;9.234;2023-04-30T12:54:08;15.17;;;7.93;;
20445;SDS011;10382;49.140;9.234;2023-04-30T12:56:35;17.67;;;7.33;;
20445;SDS011;10382;49.140;9.234;2023-04-30T12:59:01;12.57;;;6.53;;
20445;SDS011;10382;49.140;9.234;2023-04-30T13:01:28;11.13;;;5.80;;
20445;SDS011;10382;49.140;9.234;2023-04-30T13:03:57;12.43;;;6.23;;
20445;SDS011;10382;49.140;9.234;2023-04-30T13:06:24;20.00;;;8.40;;
20445;SDS011;10382;49.140;9.234;2023-04-30T13:08:54;7.80;;;4.50;;
20445;SDS011;10382;49.140;9.234;2023-04-30T13:11:21;13.77;;;6.77;;
20445;SDS011;10382;49.140;9.234;2023-04-30T13:13:50;14.77;;;7.43;;
20445;SDS011;10382;49.140;9.234;2023-04-30T13:16:19;13.73;;;5.63;;
20445;SDS011;10382;49.140;9.234;2023-04-30T13:21:23;22.60;;;7.33;;
20445;SDS011;10382;49.140;9.234;2023-04-30T13:23:49;26.17;;;8.60;;
20445;SDS011;10382;49.140;9.234;2023-04-30T13:26:18;29.50;;;9.07;;
20445;SDS011;10382;49.140;9.234;2023-04-30T13:28:45;21.90;;;7.50;;
20445;SDS011;10382;49.140;9.234;2023-04-30T13:31:12;23.40;;;7.20;;
20445;SDS011;10382;49.140;9.234;2023-04-30T13:33:38;29.77;;;8.33;;
20445;SDS011;10382;49.140;9.234;2023-04-30T13:36:06;30.47;;;8.87;;
20445;SDS011;10382;49.140;9.234;2023-04-30T13:38:33;23.57;;;7.17;;
20445;SDS011;10382;49.140;9.234;2023-04-30T13:40:59;23.00;;;7.63;;
20445;SDS011;10382;49.140;9.234;2023-04-30T13:43:28;25.53;;;8.00;;
20445;SDS011;10382;49.140;9.234;2023-04-30T13:45:55;26.73;;;7.67;;
20445;SDS011;10382;49.140;9.234;2023-04-30T13:48:22;26.03;;;8.60;;
20445;SDS011;10382;49.140;9.234;2023-04-30T13:50:50;20.50;;;6.97;;
20445;SDS011;10382;49.140;9.234;2023-04-30T13:53:17;36.87;;;10.70;;
20445;SDS011;10382;49.140;9.234;2023-04-30T13:55:44;27.23;;;8.67;;
20445;SDS011;10382;49.140;9.234;2023-04-30T13:58:11;26.83;;;8.63;;
20445;SDS011;10382;49.140;9.234;2023-04-30T14:00:39;29.00;;;8.83;;
20445;SDS011;10382;49.140;9.234;2023-04-30T14:03:06;31.80;;;9.40;;
20445;SDS011;10382;49.140;9.234;2023-04-30T14:05:33;25.57;;;8.30;;
20445;SDS011;10382;49.140;9.234;2023-04-30T14:08:00;18.93;;;5.77;;
20445;SDS011;10382;49.140;9.234;2023-04-30T14:10:27;33.47;;;10.03;;
20445;SDS011;10382;49.140;9.234;2023-04-30T14:12:54;26.53;;;8.57;;
20445;SDS011;10382;49.140;9.234;2023-04-30T14:15:21;23.87;;;7.47;;
20445;SDS011;10382;49.140;9.234;2023-04-30T14:17:49;28.67;;;8.90;;
20445;SDS011;10382;49.140;9.234;2023-04-30T14:20:17;26.50;;;6.80;;
20445;SDS011;10382;49.140;9.234;2023-04-30T14:22:43;27.17;;;8.83;;
20445;SDS011;10382;49.140;9.234;2023-04-30T14:25:11;27.83;;;8.40;;
20445;SDS011;10382;49.140;9.234;2023-04-30T14:27:38;24.83;;;7.47;;
20445;SDS011;10382;49.140;9.234;2023-04-30T14:30:06;21.00;;;6.70;;
20445;SDS011;10382;49.140;9.234;2023-04-30T14:32:34;26.10;;;8.40;;
20445;SDS011;10382;49.140;9.234;2023-04-30T14:35:03;18.80;;;5.83;;
20445;SDS011;10382;49.140;9.234;2023-04-30T14:37:30;21.50;;;6.90;;
20445;SDS011;10382;49.140;9.234;2023-04-30T14:39:57;21.93;;;6.47;;